Time;durP1;ratioP1;P1;durP2;ratioP2;P2;SDS_P1;SDS_P2;PMS_P1;PMS_P2;Temp;Humidity;BMP_temperature;BMP_pressure;BME280_temperature;BME280_humidity;BME280_pressure;Samples;Min_cycle;Max_cycle;Signal;HPM_P1;HPM_P2
2022/03/21 00:01:02;;;;;;;13.40;9.63;;;1.80;59.90;;;;;;5052638;28;20514;-55
2022/03/21 00:03:29;;;;;;;12.45;9.60;;;1.80;60.00;;;;;;5053529;28;20033;-58
2022/03/21 00:05:56;;;;;;;17.92;10.45;;;1.70;60.60;;;;;;5053366;28;20025;-57
2022/03/21 00:08:22;;;;;;;13.02;9.57;;;1.70;60.60;;;;;;5052907;28;20075;-55
2022/03/21 00:10:49;;;;;;;14.70;10.02;;;1.70;61.00;;;;;;5050925;28;20029;-56
2022/03/21 00:13:15;;;;;;;15.45;10.18;;;1.70;60.90;;;;;;5052883;28;20049;-55
2022/03/21 00:15:46;;;;;;;16.10;9.95;;;1.60;61.50;;;;;;5052932;28;20025;-58
2022/03/21 00:18:15;;;;;;;14.93;10.43;;;1.60;62.20;;;;;;5053534;28;20028;-54
2022/03/21 00:20:43;;;;;;;15.45;10.55;;;1.50;62.30;;;;;;5052492;28;20112;-56
2022/03/21 00:23:09;;;;;;;12.32;8.73;;;1.50;62.30;;;;;;5051607;28;20029;-54
2022/03/21 00:25:35;;;;;;;15.20;10.60;;;1.50;62.40;;;;;;5052389;28;20031;-58
2022/03/21 00:28:00;;;;;;;14.27;9.60;;;1.50;62.90;;;;;;5053031;28;20059;-56
2022/03/21 00:30:27;;;;;;;16.08;9.50;;;1.40;62.70;;;;;;5052692;28;20070;-54
2022/03/21 00:32:52;;;;;;;14.02;9.40;;;1.50;62.30;;;;;;5052524;28;20036;-56
2022/03/21 00:35:20;;;;;;;14.05;9.48;;;1.40;62.90;;;;;;5052852;28;20029;-53
2022/03/21 00:37:46;;;;;;;14.40;9.63;;;1.40;63.40;;;;;;5052143;28;20031;-57
2022/03/21 00:40:15;;;;;;;14.25;10.18;;;1.30;64.10;;;;;;5052614;28;20708;-58
2022/03/21 00:42:42;;;;;;;19.60;12.93;;;1.30;64.00;;;;;;5052301;28;20033;-56
2022/03/21 00:45:12;;;;;;;18.30;13.18;;;1.20;63.90;;;;;;5051269;28;20036;-55
2022/03/21 00:47:38;;;;;;;18.90;11.48;;;1.20;64.60;;;;;;5051719;28;20029;-59
2022/03/21 00:50:05;;;;;;;14.90;10.25;;;1.20;65.40;;;;;;5052312;28;20052;-54
2022/03/21 00:52:37;;;;;;;13.57;9.75;;;1.10;65.20;;;;;;5051477;28;20020;-58
2022/03/21 00:55:03;;;;;;;13.15;9.88;;;1.10;64.90;;;;;;5052029;28;20119;-55
2022/03/21 00:57:29;;;;;;;12.85;9.95;;;1.10;65.60;;;;;;5053042;28;20116;-56
2022/03/21 00:59:54;;;;;;;16.58;11.15;;;1.10;66.00;;;;;;5050777;28;20033;-54
2022/03/21 01:02:20;;;;;;;15.95;9.20;;;1.10;65.80;;;;;;5052349;28;20376;-55
2022/03/21 01:04:46;;;;;;;16.50;10.13;;;1.10;65.90;;;;;;5052233;28;20029;-58
2022/03/21 01:07:11;;;;;;;13.05;9.35;;;1.10;66.70;;;;;;5051709;28;20464;-58
2022/03/21 01:09:37;;;;;;;16.85;11.00;;;1.00;66.60;;;;;;5052252;28;20547;-55
2022/03/21 01:12:03;;;;;;;13.13;9.57;;;1.00;66.80;;;;;;5052258;28;20025;-54
2022/03/21 01:14:31;;;;;;;14.40;9.60;;;1.00;67.10;;;;;;5052075;28;20124;-55
2022/03/21 01:16:57;;;;;;;20.20;10.38;;;1.00;67.70;;;;;;5051822;28;20025;-54
2022/03/21 01:19:24;;;;;;;17.85;10.23;;;0.90;68.00;;;;;;5052041;28;20082;-58
2022/03/21 01:21:49;;;;;;;16.98;10.23;;;1.00;67.30;;;;;;5051938;28;20116;-54
2022/03/21 01:24:15;;;;;;;16.45;9.82;;;0.90;66.60;;;;;;5051077;28;20516;-54
2022/03/21 01:26:41;;;;;;;17.25;10.00;;;1.00;67.10;;;;;;5051233;28;20497;-56
2022/03/21 01:29:06;;;;;;;13.93;9.93;;;0.90;66.70;;;;;;5051869;28;20384;-55
2022/03/21 01:31:33;;;;;;;13.45;9.10;;;0.90;65.60;;;;;;5051117;28;20025;-56
2022/03/21 01:33:58;;;;;;;15.55;9.98;;;1.00;65.70;;;;;;5049885;28;20496;-56
2022/03/21 01:36:24;;;;;;;15.32;9.73;;;1.00;65.60;;;;;;5051950;28;20059;-58
2022/03/21 01:38:49;;;;;;;14.27;9.13;;;0.90;66.50;;;;;;5051263;28;20112;-57
2022/03/21 01:41:15;;;;;;;12.18;9.85;;;0.90;67.20;;;;;;5050910;28;20132;-58
2022/03/21 01:44:04;;;;;;;14.35;9.20;;;0.90;67.60;;;;;;5051629;28;20588;-58
2022/03/21 01:46:30;;;;;;;13.27;9.07;;;0.80;68.60;;;;;;5051371;28;20035;-58
2022/03/21 01:48:56;;;;;;;15.93;9.90;;;0.80;68.70;;;;;;5050548;28;20021;-58
2022/03/21 01:51:22;;;;;;;13.95;8.68;;;0.70;68.70;;;;;;5050488;28;20455;-59
2022/03/21 01:56:34;;;;;;;16.58;10.65;;;0.60;70.70;;;;;;5052019;28;20048;-57
2022/03/21 01:59:00;;;;;;;14.45;9.80;;;0.50;73.30;;;;;;5051242;28;20036;-57
2022/03/21 02:01:25;;;;;;;14.00;9.50;;;0.50;73.30;;;;;;5050834;28;20032;-58
2022/03/21 02:03:51;;;;;;;17.77;9.30;;;0.40;72.20;;;;;;5049486;28;20092;-58
2022/03/21 02:06:17;;;;;;;14.73;10.70;;;0.40;72.20;;;;;;5050902;28;20021;-57
2022/03/21 02:08:44;;;;;;;14.40;9.43;;;0.40;73.50;;;;;;5050318;28;20032;-57
2022/03/21 02:11:10;;;;;;;15.30;10.50;;;0.30;74.70;;;;;;5051327;28;20095;-58
2022/03/21 02:13:37;;;;;;;16.42;11.43;;;0.40;74.70;;;;;;5051376;28;20060;-56
2022/03/21 02:16:04;;;;;;;14.10;10.52;;;0.30;75.20;;;;;;5050436;28;20620;-57
2022/03/21 02:18:31;;;;;;;17.55;9.63;;;0.30;76.60;;;;;;5051001;28;20052;-57
2022/03/21 02:21:00;;;;;;;13.57;9.07;;;0.20;78.10;;;;;;5050904;28;20108;-56
2022/03/21 02:23:38;;;;;;;12.77;9.35;;;0.20;78.50;;;;;;5050637;28;20047;-56
2022/03/21 02:26:10;;;;;;;15.85;9.68;;;0.20;78.60;;;;;;5050749;28;20025;-55
2022/03/21 02:28:37;;;;;;;16.05;10.00;;;0.10;79.30;;;;;;5050555;28;20017;-56
2022/03/21 02:31:04;;;;;;;13.10;9.68;;;0.10;79.10;;;;;;5051273;28;20052;-56
2022/03/21 02:33:48;;;;;;;18.08;10.85;;;0.10;80.30;;;;;;5050880;28;20052;-56
2022/03/21 02:36:16;;;;;;;17.17;9.48;;;0.00;83.30;;;;;;5050341;28;20059;-57
2022/03/21 02:38:44;;;;;;;16.63;9.18;;;-0.10;85.50;;;;;;5049823;28;20080;-53
2022/03/21 02:41:11;;;;;;;13.82;10.10;;;-0.10;83.80;;;;;;5048532;28;20115;-56
2022/03/21 02:43:54;;;;;;;13.30;9.32;;;-0.10;82.70;;;;;;5050749;28;20036;-56
2022/03/21 02:46:20;;;;;;;14.93;9.65;;;-0.10;85.40;;;;;;5053975;28;20472;-57
2022/03/21 02:48:50;;;;;;;21.58;10.65;;;-0.10;83.30;;;;;;5054457;28;20108;-57
2022/03/21 02:51:20;;;;;;;11.02;8.93;;;-0.10;82.40;;;;;;5054774;28;20013;-57
2022/03/21 02:53:48;;;;;;;14.68;9.57;;;-0.10;81.10;;;;;;5054522;28;20631;-57
2022/03/21 02:56:14;;;;;;;13.77;9.93;;;0.00;81.70;;;;;;5054962;28;20025;-57
2022/03/21 02:58:40;;;;;;;19.63;10.32;;;0.00;82.30;;;;;;5053174;28;20028;-54
2022/03/21 03:01:17;;;;;;;13.85;9.80;;;-0.10;81.30;;;;;;5055185;28;20021;-54
2022/03/21 03:03:44;;;;;;;13.73;8.77;;;-0.10;81.90;;;;;;5054416;28;20057;-53
2022/03/21 03:06:10;;;;;;;23.02;9.13;;;-0.10;84.70;;;;;;5054925;28;20033;-53
2022/03/21 03:08:38;;;;;;;14.68;9.35;;;-0.20;89.20;;;;;;5053005;28;20021;-55
2022/03/21 03:11:04;;;;;;;15.10;8.82;;;-0.20;89.90;;;;;;5053366;28;20021;-53
2022/03/21 03:13:30;;;;;;;11.65;8.68;;;-0.20;91.40;;;;;;5054135;28;20160;-55
2022/03/21 03:15:55;;;;;;;12.23;8.57;;;-0.20;90.80;;;;;;5054051;28;20033;-57
2022/03/21 03:18:21;;;;;;;12.98;8.90;;;-0.20;91.20;;;;;;5055208;28;20479;-56
2022/03/21 03:20:52;;;;;;;14.57;9.77;;;-0.30;89.50;;;;;;5053408;28;20028;-58
2022/03/21 03:23:19;;;;;;;15.02;9.38;;;-0.30;91.00;;;;;;5053870;28;20044;-57
2022/03/21 03:25:45;;;;;;;10.90;8.85;;;-0.30;91.60;;;;;;5053533;28;20614;-57
2022/03/21 03:28:12;;;;;;;14.43;9.55;;;-0.40;92.40;;;;;;5054627;28;20020;-57
2022/03/21 03:30:39;;;;;;;15.05;8.98;;;-0.40;92.40;;;;;;5054159;28;20020;-58
2022/03/21 03:33:05;;;;;;;15.43;10.30;;;-0.50;93.20;;;;;;5053366;28;20053;-57
2022/03/21 03:35:31;;;;;;;12.38;9.07;;;-0.60;94.30;;;;;;5054743;28;20055;-58
2022/03/21 03:37:57;;;;;;;12.85;8.82;;;-0.60;94.50;;;;;;5054562;28;20036;-57
2022/03/21 03:40:22;;;;;;;13.45;8.80;;;-0.60;93.20;;;;;;5053971;28;20448;-57
2022/03/21 03:42:48;;;;;;;16.95;8.85;;;-0.70;94.60;;;;;;5053998;28;20041;-58
2022/03/21 03:45:14;;;;;;;16.75;9.38;;;-0.70;95.10;;;;;;5052041;28;20033;-58
2022/03/21 03:47:43;;;;;;;19.88;9.82;;;-0.70;94.80;;;;;;5053297;28;20063;-56
2022/03/21 03:50:09;;;;;;;14.60;10.80;;;-0.80;95.50;;;;;;5053979;28;20024;-58
2022/03/21 03:52:35;;;;;;;13.63;9.50;;;-0.80;96.30;;;;;;5054367;28;20061;-57
2022/03/21 03:55:01;;;;;;;14.23;9.45;;;-0.80;96.90;;;;;;5053563;28;20451;-57
2022/03/21 03:57:26;;;;;;;12.30;9.75;;;-0.90;96.80;;;;;;5052289;28;20079;-57
2022/03/21 03:59:52;;;;;;;19.50;8.93;;;-0.90;97.10;;;;;;5054032;28;20032;-58
2022/03/21 04:02:21;;;;;;;12.27;9.23;;;-1.00;97.50;;;;;;5051885;28;20075;-58
2022/03/21 04:04:46;;;;;;;17.27;9.57;;;-1.00;97.30;;;;;;5053307;28;20115;-58
2022/03/21 04:07:12;;;;;;;14.00;9.73;;;-1.00;97.40;;;;;;5054042;28;20143;-57
2022/03/21 04:09:38;;;;;;;18.08;9.15;;;-1.00;97.10;;;;;;5053447;28;20062;-58
2022/03/21 04:12:04;;;;;;;13.55;9.65;;;-1.10;97.40;;;;;;5053852;28;20095;-59
2022/03/21 04:14:30;;;;;;;13.52;8.73;;;-1.10;97.30;;;;;;5053804;28;20048;-57
2022/03/21 04:16:55;;;;;;;14.40;9.90;;;-1.10;97.80;;;;;;5053794;28;20024;-57
2022/03/21 04:19:21;;;;;;;15.52;10.63;;;-1.10;99.00;;;;;;5053773;28;20025;-55
2022/03/21 04:21:47;;;;;;;15.48;10.57;;;-1.10;98.80;;;;;;5053733;28;20024;-57
2022/03/21 04:24:13;;;;;;;14.82;10.02;;;-1.00;98.50;;;;;;5053766;28;20056;-58
2022/03/21 04:26:38;;;;;;;13.57;9.25;;;-1.20;97.70;;;;;;5052085;28;20441;-58
2022/03/21 04:29:04;;;;;;;14.30;9.35;;;-1.10;98.10;;;;;;5053684;28;20033;-58
2022/03/21 04:31:32;;;;;;;14.05;10.25;;;-1.10;97.70;;;;;;5053613;28;20063;-58
2022/03/21 04:33:57;;;;;;;12.52;9.48;;;-1.10;97.20;;;;;;5053402;28;20024;-58
2022/03/21 04:36:23;;;;;;;11.05;9.23;;;-1.00;97.50;;;;;;5053455;28;20384;-52
2022/03/21 04:38:49;;;;;;;11.05;8.25;;;-1.00;97.30;;;;;;5053436;28;20114;-56
2022/03/21 04:41:15;;;;;;;14.63;9.02;;;-1.00;95.60;;;;;;5053496;28;20099;-56
2022/03/21 04:43:40;;;;;;;14.82;9.60;;;-0.90;94.80;;;;;;5053092;28;20049;-54
2022/03/21 04:46:06;;;;;;;11.65;9.02;;;-0.90;94.30;;;;;;5053183;28;20119;-55
2022/03/21 04:48:32;;;;;;;10.63;7.93;;;-0.80;93.90;;;;;;5053343;28;20373;-55
2022/03/21 04:50:58;;;;;;;12.13;8.88;;;-0.70;93.60;;;;;;5053033;28;20032;-57
2022/03/21 04:53:23;;;;;;;16.13;8.05;;;-0.70;93.10;;;;;;5053309;28;20029;-55
2022/03/21 04:55:49;;;;;;;12.30;9.07;;;-0.60;92.80;;;;;;5052930;28;20029;-57
2022/03/21 04:58:15;;;;;;;15.70;10.13;;;-0.60;92.60;;;;;;5052522;28;20060;-57
2022/03/21 05:00:41;;;;;;;11.35;8.82;;;-0.60;92.30;;;;;;5051457;28;20029;-53
2022/03/21 05:03:09;;;;;;;12.68;8.27;;;-0.60;92.40;;;;;;5052544;28;20036;-59
2022/03/21 05:05:35;;;;;;;11.20;8.88;;;-0.60;92.80;;;;;;5052751;28;20635;-58
2022/03/21 05:08:02;;;;;;;10.48;8.13;;;-0.60;92.60;;;;;;5052591;28;20027;-57
2022/03/21 05:10:28;;;;;;;12.27;8.57;;;-0.60;92.50;;;;;;5052605;28;20013;-53
2022/03/21 05:12:54;;;;;;;14.85;10.18;;;-0.60;92.50;;;;;;5051885;28;20063;-58
2022/03/21 05:15:20;;;;;;;12.38;8.90;;;-0.70;92.80;;;;;;5052286;28;20017;-57
2022/03/21 05:17:46;;;;;;;10.20;7.60;;;-0.70;93.10;;;;;;5052606;28;20533;-58
2022/03/21 05:20:17;;;;;;;9.93;8.20;;;-0.70;92.50;;;;;;5052734;28;20624;-57
2022/03/21 05:22:44;;;;;;;13.65;8.82;;;-0.60;92.30;;;;;;5052493;28;20025;-57
2022/03/21 05:30:58;;;;;;;14.25;8.77;;;-0.40;90.80;;;;;;5069234;28;20028;-58
2022/03/21 05:36:08;;;;;;;12.48;8.32;;;-0.30;90.50;;;;;;5052297;28;20490;-58
2022/03/21 05:38:34;;;;;;;15.05;7.70;;;-0.30;90.20;;;;;;5050865;28;20029;-59
2022/03/21 05:41:01;;;;;;;12.25;7.30;;;-0.20;88.40;;;;;;5052329;28;20029;-59
2022/03/21 05:43:28;;;;;;;14.15;9.70;;;-0.10;86.80;;;;;;5052249;28;20056;-59
2022/03/21 05:45:55;;;;;;;13.80;9.13;;;-0.10;86.40;;;;;;5051934;28;20123;-58
2022/03/21 05:51:05;;;;;;;264.60;110.35;;;0.00;88.70;;;;;;5052085;28;20032;-58
2022/03/21 05:53:31;;;;;;;40.22;21.98;;;0.00;89.70;;;;;;5052145;28;20449;-58
2022/03/21 05:56:00;;;;;;;20.95;12.68;;;0.00;90.20;;;;;;5051702;28;20079;-59
2022/03/21 05:58:26;;;;;;;10.73;8.80;;;0.10;88.30;;;;;;5051601;28;20487;-58
2022/03/21 06:00:52;;;;;;;13.00;8.68;;;0.10;88.70;;;;;;5051402;28;20029;-59
2022/03/21 06:03:18;;;;;;;15.13;9.85;;;0.20;87.70;;;;;;5050118;28;20036;-59
2022/03/21 06:05:44;;;;;;;21.38;17.25;;;0.20;89.00;;;;;;5051204;28;20025;-58
2022/03/21 06:08:10;;;;;;;15.48;10.77;;;0.30;88.30;;;;;;5051057;28;20025;-59
2022/03/21 06:11:16;;;;;;;20.02;13.05;;;0.40;87.20;;;;;;5050007;28;20530;-59
2022/03/21 06:13:45;;;;;;;13.32;10.65;;;0.50;86.10;;;;;;5051097;28;20113;-59
2022/03/21 06:16:11;;;;;;;23.20;12.00;;;0.50;86.50;;;;;;5049565;28;20487;-59
2022/03/21 06:18:38;;;;;;;35.08;14.40;;;0.60;86.30;;;;;;5048644;28;20075;-59
2022/03/21 06:21:06;;;;;;;16.23;9.18;;;0.70;85.90;;;;;;5048146;28;20027;-58
2022/03/21 06:23:32;;;;;;;16.58;11.13;;;0.70;85.70;;;;;;5050109;28;20079;-58
2022/03/21 06:25:58;;;;;;;11.85;8.80;;;0.80;84.30;;;;;;5050687;28;20052;-59
2022/03/21 06:28:26;;;;;;;18.40;11.38;;;0.80;84.20;;;;;;5050065;28;20021;-59
2022/03/21 06:30:53;;;;;;;9.45;7.70;;;0.90;83.30;;;;;;5050927;28;20028;-59
2022/03/21 06:33:22;;;;;;;10.40;8.25;;;0.90;81.60;;;;;;5051280;28;20063;-59
2022/03/21 06:35:48;;;;;;;20.73;8.52;;;1.00;80.40;;;;;;5050172;28;20024;-59
2022/03/21 06:38:14;;;;;;;13.10;8.18;;;1.00;81.30;;;;;;5050535;28;20536;-59
2022/03/21 06:40:42;;;;;;;12.85;8.02;;;1.10;81.40;;;;;;5051121;28;20029;-59
2022/03/21 06:43:08;;;;;;;14.15;7.80;;;1.20;80.00;;;;;;5051245;28;20029;-59
2022/03/21 06:45:33;;;;;;;11.68;8.45;;;1.20;79.90;;;;;;5051041;28;20380;-59
2022/03/21 06:47:59;;;;;;;12.52;8.55;;;1.30;79.20;;;;;;5051171;28;20094;-59
2022/03/21 06:50:25;;;;;;;14.00;8.02;;;1.40;78.80;;;;;;5051067;28;20200;-59
2022/03/21 06:52:52;;;;;;;18.80;8.52;;;1.50;78.40;;;;;;5051196;28;20111;-59
2022/03/21 06:55:19;;;;;;;11.02;7.97;;;1.60;77.10;;;;;;5051319;28;20020;-59
2022/03/21 06:57:45;;;;;;;13.65;8.13;;;1.60;77.10;;;;;;5051048;28;20036;-59
2022/03/21 07:00:13;;;;;;;12.75;8.48;;;1.70;78.10;;;;;;5050238;28;20021;-57
2022/03/21 07:02:40;;;;;;;11.00;8.50;;;1.80;76.00;;;;;;5050167;28;20025;-58
2022/03/21 07:05:07;;;;;;;21.38;9.00;;;1.80;76.10;;;;;;5049694;28;20021;-58
2022/03/21 07:07:33;;;;;;;13.95;7.57;;;1.90;76.40;;;;;;5050261;28;20029;-58
2022/03/21 07:10:00;;;;;;;11.23;7.95;;;2.00;74.60;;;;;;5050163;28;20056;-59
2022/03/21 07:12:26;;;;;;;14.88;8.55;;;2.20;74.90;;;;;;5049923;28;20024;-57
2022/03/21 07:14:52;;;;;;;11.55;8.35;;;2.20;75.00;;;;;;5049764;28;20063;-58
2022/03/21 07:17:21;;;;;;;12.98;9.57;;;2.20;73.30;;;;;;5050822;28;20017;-58
2022/03/21 07:19:47;;;;;;;13.77;8.50;;;2.30;73.10;;;;;;5050297;28;20021;-58
2022/03/21 07:22:14;;;;;;;13.40;9.43;;;2.40;73.10;;;;;;5050027;28;20439;-57
2022/03/21 07:24:39;;;;;;;9.73;7.55;;;2.50;73.80;;;;;;5049898;28;20017;-56
2022/03/21 07:27:05;;;;;;;16.02;8.05;;;2.60;73.80;;;;;;5050347;28;20021;-58
2022/03/21 07:29:31;;;;;;;16.33;8.45;;;2.70;73.00;;;;;;5050827;28;20025;-59
2022/03/21 07:31:57;;;;;;;11.30;7.97;;;2.90;74.10;;;;;;5052496;28;20038;-58
2022/03/21 07:34:23;;;;;;;11.90;7.97;;;3.00;72.30;;;;;;5054753;28;20326;-59
2022/03/21 07:36:50;;;;;;;14.70;8.38;;;3.10;71.20;;;;;;5069302;28;20032;-59
2022/03/21 07:39:16;;;;;;;9.50;7.60;;;3.20;71.20;;;;;;5073263;28;20519;-59
2022/03/21 07:41:42;;;;;;;12.10;8.88;;;3.20;70.30;;;;;;5074308;28;20028;-59
2022/03/21 07:44:08;;;;;;;11.32;8.50;;;3.30;70.00;;;;;;5074079;28;20025;-58
2022/03/21 07:49:19;;;;;;;21.50;8.80;;;3.40;70.80;;;;;;5074417;28;20069;-59
2022/03/21 07:51:45;;;;;;;15.50;8.80;;;3.50;69.20;;;;;;5074288;28;20035;-60
2022/03/21 07:54:12;;;;;;;16.83;8.02;;;3.60;69.40;;;;;;5074431;28;20025;-60
2022/03/21 07:56:40;;;;;;;12.32;8.55;;;3.70;67.90;;;;;;5074078;28;20115;-60
2022/03/21 07:59:06;;;;;;;10.55;7.65;;;3.90;67.90;;;;;;5074015;28;20025;-59
2022/03/21 08:01:33;;;;;;;15.00;8.25;;;3.90;67.10;;;;;;5074277;28;20107;-59
2022/03/21 08:04:00;;;;;;;19.55;8.73;;;4.10;66.70;;;;;;5073992;28;20590;-59
2022/03/21 08:06:27;;;;;;;13.50;8.57;;;4.20;66.50;;;;;;5073960;28;20055;-60
2022/03/21 08:08:55;;;;;;;12.38;8.27;;;4.20;67.10;;;;;;5073906;28;20021;-60
2022/03/21 08:11:22;;;;;;;11.77;8.52;;;4.40;65.60;;;;;;5073922;28;20373;-60
2022/03/21 08:13:51;;;;;;;12.75;8.00;;;4.60;64.90;;;;;;5073606;28;20044;-60
2022/03/21 08:16:19;;;;;;;12.93;8.35;;;4.60;63.70;;;;;;5073865;28;20460;-59
2022/03/21 08:18:50;;;;;;;12.38;8.10;;;4.80;62.60;;;;;;5073565;28;20025;-60
2022/03/21 08:21:16;;;;;;;11.25;8.25;;;4.90;62.60;;;;;;5072492;28;20111;-60
2022/03/21 08:23:42;;;;;;;12.20;8.55;;;5.10;64.90;;;;;;5073667;28;20111;-60
2022/03/21 08:26:10;;;;;;;14.75;8.65;;;5.30;63.90;;;;;;5073494;28;20115;-60
2022/03/21 08:28:36;;;;;;;11.00;8.38;;;5.30;60.50;;;;;;5073569;28;20024;-59
2022/03/21 08:31:02;;;;;;;10.32;7.95;;;5.50;60.30;;;;;;5073560;28;20021;-60
2022/03/21 08:33:27;;;;;;;11.98;8.02;;;5.60;60.70;;;;;;5073284;28;20113;-60
2022/03/21 08:35:53;;;;;;;11.63;7.43;;;5.80;58.80;;;;;;5073275;28;20036;-60
2022/03/21 08:38:18;;;;;;;12.23;7.32;;;5.90;57.90;;;;;;5073057;28;20035;-60
2022/03/21 08:40:44;;;;;;;14.50;8.85;;;6.00;59.00;;;;;;5062912;28;20033;-60
2022/03/21 08:43:10;;;;;;;12.95;7.50;;;6.30;60.10;;;;;;5039286;28;20048;-60
2022/03/21 08:45:36;;;;;;;11.40;8.05;;;6.40;57.70;;;;;;5028386;28;20407;-60
2022/03/21 08:48:02;;;;;;;9.68;7.32;;;6.50;56.30;;;;;;5040806;28;20090;-60
2022/03/21 08:50:29;;;;;;;15.77;8.13;;;6.60;55.90;;;;;;5041921;28;20029;-60
2022/03/21 08:52:57;;;;;;;10.63;8.18;;;6.80;56.40;;;;;;5042319;28;20222;-60
2022/03/21 08:55:23;;;;;;;20.02;8.35;;;6.90;56.30;;;;;;5042853;28;20400;-60
2022/03/21 08:57:49;;;;;;;11.55;7.13;;;7.00;54.90;;;;;;5041710;28;20029;-60
2022/03/21 09:00:15;;;;;;;14.38;7.65;;;7.00;55.40;;;;;;5042314;28;20530;-60
2022/03/21 09:02:42;;;;;;;16.48;8.20;;;7.00;54.40;;;;;;5042571;28;20052;-60
2022/03/21 09:05:12;;;;;;;17.05;7.28;;;7.20;53.00;;;;;;5041811;28;20056;-60
2022/03/21 09:07:39;;;;;;;10.88;8.35;;;7.40;53.40;;;;;;5041481;28;20021;-60
2022/03/21 09:10:06;;;;;;;12.43;7.97;;;7.60;54.60;;;;;;5061672;28;20058;-60
2022/03/21 09:12:32;;;;;;;20.98;11.02;;;7.60;51.30;;;;;;5062098;28;20360;-60
2022/03/21 09:14:59;;;;;;;12.50;7.32;;;7.80;53.30;;;;;;5061891;28;20032;-60
2022/03/21 09:17:26;;;;;;;20.65;9.75;;;7.90;53.10;;;;;;5060945;28;20036;-60
2022/03/21 09:19:52;;;;;;;17.20;7.93;;;8.00;53.20;;;;;;5061526;28;20464;-60
2022/03/21 09:22:18;;;;;;;13.05;7.68;;;8.10;53.60;;;;;;5062101;28;20028;-60
2022/03/21 09:24:44;;;;;;;14.77;7.35;;;8.30;52.70;;;;;;5058503;28;21210;-60
2022/03/21 09:27:11;;;;;;;19.25;8.75;;;8.40;52.10;;;;;;5042148;28;20091;-60
2022/03/21 09:29:37;;;;;;;9.13;7.30;;;8.70;52.00;;;;;;5042006;28;20098;-60
2022/03/21 09:32:03;;;;;;;18.52;8.15;;;8.80;51.00;;;;;;5041175;28;20554;-61
2022/03/21 09:34:29;;;;;;;14.85;8.77;;;9.10;50.30;;;;;;5041412;28;20040;-60
2022/03/21 09:36:55;;;;;;;15.57;7.57;;;9.10;49.20;;;;;;5041319;28;20033;-60
2022/03/21 09:39:20;;;;;;;10.65;7.75;;;9.00;45.70;;;;;;5041936;28;20090;-60
2022/03/21 09:41:47;;;;;;;14.35;7.05;;;9.00;45.90;;;;;;5040929;28;20576;-60
2022/03/21 09:44:13;;;;;;;10.75;7.95;;;9.40;48.70;;;;;;5041370;28;20122;-60
2022/03/21 09:46:41;;;;;;;16.25;7.30;;;9.50;47.40;;;;;;5041516;28;20107;-60
2022/03/21 09:49:11;;;;;;;10.23;8.43;;;9.50;46.30;;;;;;5040508;28;20060;-60
2022/03/21 09:51:39;;;;;;;9.88;7.43;;;9.90;48.10;;;;;;5041639;28;20353;-60
2022/03/21 09:54:05;;;;;;;17.48;9.43;;;10.20;48.20;;;;;;5040372;28;20032;-61
2022/03/21 09:56:30;;;;;;;12.65;7.95;;;10.00;46.40;;;;;;5041170;28;20033;-60
2022/03/21 09:59:00;;;;;;;19.15;11.20;;;10.30;48.60;;;;;;5041606;28;20392;-60
2022/03/21 10:01:30;;;;;;;15.95;9.45;;;10.00;46.20;;;;;;5040556;28;20136;-60
2022/03/21 10:03:56;;;;;;;15.13;8.52;;;10.30;46.40;;;;;;5040996;28;20677;-61
2022/03/21 10:06:34;;;;;;;11.60;8.90;;;10.60;46.10;;;;;;5041180;28;20420;-61
2022/03/21 10:09:19;;;;;;;11.73;8.18;;;10.80;47.70;;;;;;5040510;28;20058;-60
2022/03/21 10:11:49;;;;;;;11.85;7.35;;;10.80;46.70;;;;;;5058722;28;20032;-61
2022/03/21 10:14:32;;;;;;;17.88;8.15;;;10.90;44.90;;;;;;5040007;28;20875;-61
2022/03/21 10:17:08;;;;;;;11.75;7.47;;;10.90;45.60;;;;;;5060656;28;20036;-58
2022/03/21 10:19:52;;;;;;;17.02;8.32;;;11.20;44.80;;;;;;5050494;28;20798;-61
2022/03/21 10:22:43;;;;;;;14.15;7.50;;;11.30;45.10;;;;;;5040466;28;20123;-61
2022/03/21 10:25:15;;;;;;;10.50;7.78;;;11.40;44.40;;;;;;5041203;28;20040;-61
2022/03/21 10:27:45;;;;;;;15.60;8.75;;;11.90;46.20;;;;;;5039437;28;20099;-61
2022/03/21 10:30:15;;;;;;;8.85;7.25;;;12.10;45.80;;;;;;5041370;28;20112;-61
2022/03/21 10:32:58;;;;;;;10.60;7.45;;;12.10;43.40;;;;;;5040137;28;20123;-61
2022/03/21 10:35:30;;;;;;;10.98;7.40;;;12.30;41.10;;;;;;5040083;28;20075;-61
2022/03/21 10:37:58;;;;;;;11.95;7.30;;;12.50;42.60;;;;;;5038856;28;20049;-61
2022/03/21 10:40:25;;;;;;;13.90;7.18;;;12.60;40.30;;;;;;5039347;28;20029;-61
2022/03/21 10:43:05;;;;;;;18.98;7.22;;;12.50;40.50;;;;;;5040589;28;20134;-61
2022/03/21 10:45:43;;;;;;;11.65;7.30;;;12.50;39.70;;;;;;5040864;28;20509;-60
2022/03/21 10:48:14;;;;;;;10.00;6.93;;;12.70;38.50;;;;;;5039413;28;20031;-61
2022/03/21 10:50:44;;;;;;;8.05;6.90;;;13.00;41.10;;;;;;5039600;28;20115;-61
2022/03/21 10:53:32;;;;;;;10.25;6.65;;;12.80;39.10;;;;;;5039946;28;20037;-61
2022/03/21 10:55:59;;;;;;;10.23;8.07;;;13.00;37.80;;;;;;5039405;28;20477;-61
2022/03/21 10:58:56;;;;;;;8.55;6.95;;;13.70;39.00;;;;;;5037559;28;20108;-61
2022/03/21 11:01:29;;;;;;;9.30;6.95;;;14.10;38.20;;;;;;5039489;28;20041;-61
2022/03/21 11:03:59;;;;;;;11.32;7.07;;;15.10;35.10;;;;;;5040119;28;20132;-61
2022/03/21 11:06:27;;;;;;;13.40;7.55;;;15.60;33.90;;;;;;5040144;28;20029;-61
2022/03/21 11:08:54;;;;;;;11.85;6.85;;;16.50;30.50;;;;;;5044201;28;20419;-62
2022/03/21 11:11:20;;;;;;;9.60;6.85;;;17.40;29.50;;;;;;5044272;28;20111;-61
2022/03/21 11:13:47;;;;;;;14.73;6.50;;;17.80;29.80;;;;;;5043417;28;20068;-62
2022/03/21 11:16:16;;;;;;;10.73;7.30;;;18.50;29.30;;;;;;5063189;28;20111;-62
2022/03/21 11:18:45;;;;;;;6.97;5.85;;;19.70;29.80;;;;;;5063853;28;20024;-62
2022/03/21 11:21:13;;;;;;;11.85;5.80;;;20.10;29.00;;;;;;5064070;28;20025;-62
2022/03/21 11:23:39;;;;;;;10.43;6.05;;;20.30;27.20;;;;;;5061458;28;20570;-62
2022/03/21 11:26:14;;;;;;;10.27;6.63;;;20.30;27.10;;;;;;5043629;28;20097;-62
2022/03/21 11:29:04;;;;;;;10.95;7.65;;;19.50;26.70;;;;;;5044157;28;20495;-62
2022/03/21 11:32:00;;;;;;;8.40;5.88;;;19.50;28.00;;;;;;5044746;28;20036;-62
2022/03/21 11:34:53;;;;;;;8.00;6.05;;;20.20;27.70;;;;;;5043979;28;20024;-62
2022/03/21 11:37:26;;;;;;;11.65;7.25;;;20.70;26.00;;;;;;5042516;28;20032;-62
2022/03/21 11:40:32;;;;;;;13.00;6.47;;;20.70;26.50;;;;;;5044017;28;20155;-62
2022/03/21 11:43:19;;;;;;;9.23;5.57;;;20.90;27.00;;;;;;5043419;28;20103;-62
2022/03/21 11:45:54;;;;;;;13.57;5.95;;;21.80;26.30;;;;;;5042980;28;20087;-63
2022/03/21 11:48:23;;;;;;;14.73;6.18;;;21.20;26.30;;;;;;5043299;28;20056;-62
2022/03/21 11:50:55;;;;;;;6.97;5.80;;;21.10;25.90;;;;;;5043722;28;20049;-62
2022/03/21 11:53:28;;;;;;;14.45;6.20;;;21.30;26.30;;;;;;5043150;28;20033;-63
2022/03/21 11:55:53;;;;;;;9.18;6.22;;;21.70;26.40;;;;;;5042786;28;20130;-62
2022/03/21 11:58:22;;;;;;;8.73;6.10;;;22.00;25.60;;;;;;5043718;28;20092;-62
2022/03/21 12:01:20;;;;;;;12.90;6.10;;;22.00;26.10;;;;;;5043616;28;20036;-59
2022/03/21 12:03:46;;;;;;;17.48;6.32;;;21.60;26.60;;;;;;5051550;28;20045;-60
2022/03/21 12:06:30;;;;;;;9.95;5.53;;;22.80;26.30;;;;;;5042937;28;20062;-60
2022/03/21 12:09:01;;;;;;;19.02;6.03;;;22.10;24.20;;;;;;5042407;28;20037;-60
2022/03/21 12:11:39;;;;;;;9.02;5.63;;;21.70;24.80;;;;;;5043676;28;20025;-63
2022/03/21 12:14:28;;;;;;;17.50;5.63;;;21.80;25.60;;;;;;5043083;28;20373;-62
2022/03/21 12:17:03;;;;;;;10.73;5.85;;;21.40;25.10;;;;;;5042397;28;20692;-60
2022/03/21 12:19:45;;;;;;;6.18;5.28;;;22.30;24.50;;;;;;5042273;28;20476;-60
2022/03/21 12:22:36;;;;;;;8.55;5.18;;;23.00;25.10;;;;;;5061665;28;20039;-60
2022/03/21 12:25:06;;;;;;;13.05;5.05;;;22.80;25.00;;;;;;5061179;28;20039;-60
2022/03/21 12:27:40;;;;;;;8.98;6.20;;;22.90;25.80;;;;;;5061222;28;20029;-61
2022/03/21 12:30:22;;;;;;;7.97;5.00;;;22.90;24.80;;;;;;5049421;28;20040;-61
2022/03/21 12:32:59;;;;;;;8.52;5.32;;;22.80;24.30;;;;;;5043280;28;20023;-60
2022/03/21 12:35:45;;;;;;;14.55;5.57;;;22.40;24.20;;;;;;5052470;28;20033;-60
2022/03/21 12:38:12;;;;;;;12.20;5.60;;;22.40;24.90;;;;;;5052185;28;20132;-60
2022/03/21 12:40:50;;;;;;;9.20;5.85;;;23.10;24.90;;;;;;5052919;28;20050;-60
2022/03/21 12:43:26;;;;;;;10.30;5.00;;;22.70;24.70;;;;;;5053275;28;20031;-60
2022/03/21 12:45:58;;;;;;;8.30;4.72;;;23.80;24.40;;;;;;5052971;28;20482;-60
2022/03/21 12:48:29;;;;;;;16.55;6.43;;;24.10;23.80;;;;;;5053235;28;20036;-60
2022/03/21 12:50:55;;;;;;;8.00;5.10;;;24.50;24.50;;;;;;5052955;28;20032;-60
2022/03/21 12:53:22;;;;;;;12.38;5.10;;;24.10;23.90;;;;;;5051685;28;20403;-61
2022/03/21 12:56:02;;;;;;;6.50;4.95;;;24.60;24.00;;;;;;5052855;28;20024;-60
2022/03/21 12:58:28;;;;;;;13.32;5.85;;;24.10;23.10;;;;;;5053249;28;20115;-60
2022/03/21 13:00:56;;;;;;;7.57;5.40;;;24.30;23.20;;;;;;5052900;28;20116;-60
2022/03/21 13:03:23;;;;;;;9.07;5.07;;;23.60;24.10;;;;;;5052565;28;20423;-60
2022/03/21 13:11:20;;;;;;;8.43;4.80;;;24.20;23.60;;;;;;5051809;28;20024;-61